Terminal Aerodrome Forecast
Issued by NWS

Home | Current Version | Previous Version | Text Only | Print | Product List | Glossary On
Versions: 1 2 3 4 5 6 7 8 9 10 11 12
000
FTUS42 KMLB 130500
TAFFPR
TAF
KFPR 130530Z 1306/1406 11010KT P6SM FEW020 SCT250
     FM131400 14006KT P6SM SCT020 SCT250
     FM131500 12011KT P6SM VCTS SCT035CB SCT060
     FM131900 10010KT P6SM SCT025 BKN080
     FM140300 13005KT P6SM FEW040 BKN120=

USA.gov is the U.S. government's official web portal to all federal, state and local government web resources and services.